sensor_id;sensor_type;location;lat;lon;timestamp;P1;durP1;ratioP1;P2;durP2;ratioP2
21000;SDS011;10658;50.920;12.238;2023-07-28T00:00:07;4.03;;;1.42;;
21000;SDS011;10658;50.920;12.238;2023-07-28T00:04:15;2.38;;;1.45;;
21000;SDS011;10658;50.920;12.238;2023-07-28T00:08:15;6.45;;;1.50;;
21000;SDS011;10658;50.920;12.238;2023-07-28T00:12:16;2.67;;;1.50;;
21000;SDS011;10658;50.920;12.238;2023-07-28T00:16:17;2.50;;;1.38;;
21000;SDS011;10658;50.920;12.238;2023-07-28T00:20:18;5.70;;;1.40;;
21000;SDS011;10658;50.920;12.238;2023-07-28T00:24:18;2.95;;;1.38;;
21000;SDS011;10658;50.920;12.238;2023-07-28T00:28:19;4.78;;;1.65;;
21000;SDS011;10658;50.920;12.238;2023-07-28T00:32:21;4.70;;;1.60;;
21000;SDS011;10658;50.920;12.238;2023-07-28T00:36:21;4.05;;;1.50;;
21000;SDS011;10658;50.920;12.238;2023-07-28T00:40:22;8.82;;;1.52;;
21000;SDS011;10658;50.920;12.238;2023-07-28T00:44:23;6.28;;;2.90;;
21000;SDS011;10658;50.920;12.238;2023-07-28T00:48:24;2.97;;;1.55;;
21000;SDS011;10658;50.920;12.238;2023-07-28T00:52:26;7.10;;;1.27;;
21000;SDS011;10658;50.920;12.238;2023-07-28T00:56:26;7.15;;;1.73;;
21000;SDS011;10658;50.920;12.238;2023-07-28T01:00:28;5.25;;;1.67;;
21000;SDS011;10658;50.920;12.238;2023-07-28T01:04:28;4.57;;;1.20;;
21000;SDS011;10658;50.920;12.238;2023-07-28T01:08:34;2.55;;;1.08;;
21000;SDS011;10658;50.920;12.238;2023-07-28T01:12:54;4.78;;;1.55;;
21000;SDS011;10658;50.920;12.238;2023-07-28T01:16:55;3.85;;;1.52;;
21000;SDS011;10658;50.920;12.238;2023-07-28T01:20:56;2.83;;;1.20;;
21000;SDS011;10658;50.920;12.238;2023-07-28T01:29:13;4.55;;;1.27;;
21000;SDS011;10658;50.920;12.238;2023-07-28T01:33:15;1.40;;;0.95;;
21000;SDS011;10658;50.920;12.238;2023-07-28T01:37:16;4.65;;;1.38;;
21000;SDS011;10658;50.920;12.238;2023-07-28T01:41:17;3.90;;;1.60;;
21000;SDS011;10658;50.920;12.238;2023-07-28T01:45:18;2.70;;;0.90;;
21000;SDS011;10658;50.920;12.238;2023-07-28T01:49:19;3.00;;;1.17;;
21000;SDS011;10658;50.920;12.238;2023-07-28T01:53:19;5.63;;;1.35;;
21000;SDS011;10658;50.920;12.238;2023-07-28T01:57:20;5.30;;;1.52;;
21000;SDS011;10658;50.920;12.238;2023-07-28T02:01:21;2.85;;;1.20;;
21000;SDS011;10658;50.920;12.238;2023-07-28T02:05:22;2.38;;;1.27;;
21000;SDS011;10658;50.920;12.238;2023-07-28T02:09:23;5.70;;;1.10;;
21000;SDS011;10658;50.920;12.238;2023-07-28T02:13:23;7.50;;;1.45;;
21000;SDS011;10658;50.920;12.238;2023-07-28T02:17:24;1.63;;;0.77;;
21000;SDS011;10658;50.920;12.238;2023-07-28T02:21:25;3.15;;;1.13;;
21000;SDS011;10658;50.920;12.238;2023-07-28T02:25:27;3.80;;;0.77;;
21000;SDS011;10658;50.920;12.238;2023-07-28T02:29:27;2.78;;;1.27;;
21000;SDS011;10658;50.920;12.238;2023-07-28T02:33:28;4.32;;;1.60;;
21000;SDS011;10658;50.920;12.238;2023-07-28T02:37:35;1.63;;;0.85;;
21000;SDS011;10658;50.920;12.238;2023-07-28T02:41:36;3.70;;;0.90;;
21000;SDS011;10658;50.920;12.238;2023-07-28T02:45:37;9.10;;;1.13;;
21000;SDS011;10658;50.920;12.238;2023-07-28T02:49:40;5.40;;;1.10;;
21000;SDS011;10658;50.920;12.238;2023-07-28T02:53:41;9.05;;;1.38;;
21000;SDS011;10658;50.920;12.238;2023-07-28T02:57:41;1.15;;;0.77;;
21000;SDS011;10658;50.920;12.238;2023-07-28T03:01:42;1.15;;;0.90;;
21000;SDS011;10658;50.920;12.238;2023-07-28T03:05:45;5.18;;;1.23;;
21000;SDS011;10658;50.920;12.238;2023-07-28T03:10:00;2.35;;;1.00;;
21000;SDS011;10658;50.920;12.238;2023-07-28T03:14:05;1.25;;;0.80;;
21000;SDS011;10658;50.920;12.238;2023-07-28T03:18:07;1.20;;;0.70;;
21000;SDS011;10658;50.920;12.238;2023-07-28T03:22:10;2.45;;;0.90;;
21000;SDS011;10658;50.920;12.238;2023-07-28T03:26:15;1.63;;;0.90;;
21000;SDS011;10658;50.920;12.238;2023-07-28T03:30:27;2.58;;;0.80;;
21000;SDS011;10658;50.920;12.238;2023-07-28T03:34:30;1.38;;;0.70;;
21000;SDS011;10658;50.920;12.238;2023-07-28T03:38:35;1.58;;;0.90;;
21000;SDS011;10658;50.920;12.238;2023-07-28T03:42:39;2.55;;;0.90;;
21000;SDS011;10658;50.920;12.238;2023-07-28T03:46:43;4.07;;;0.90;;
21000;SDS011;10658;50.920;12.238;2023-07-28T03:50:45;3.22;;;0.85;;
21000;SDS011;10658;50.920;12.238;2023-07-28T03:54:53;3.33;;;1.23;;
21000;SDS011;10658;50.920;12.238;2023-07-28T03:58:56;2.03;;;0.90;;
21000;SDS011;10658;50.920;12.238;2023-07-28T04:03:03;3.80;;;1.00;;
21000;SDS011;10658;50.920;12.238;2023-07-28T04:07:53;1.80;;;0.82;;
21000;SDS011;10658;50.920;12.238;2023-07-28T04:11:59;1.58;;;1.00;;
21000;SDS011;10658;50.920;12.238;2023-07-28T04:16:18;1.83;;;1.10;;
21000;SDS011;10658;50.920;12.238;2023-07-28T04:20:31;1.73;;;1.08;;
21000;SDS011;10658;50.920;12.238;2023-07-28T04:24:37;2.65;;;0.80;;
21000;SDS011;10658;50.920;12.238;2023-07-28T04:28:55;1.95;;;1.08;;
21000;SDS011;10658;50.920;12.238;2023-07-28T04:33:00;3.30;;;0.93;;
21000;SDS011;10658;50.920;12.238;2023-07-28T04:37:10;2.58;;;1.20;;
21000;SDS011;10658;50.920;12.238;2023-07-28T04:41:36;2.65;;;0.90;;
21000;SDS011;10658;50.920;12.238;2023-07-28T04:45:44;0.88;;;0.80;;
21000;SDS011;10658;50.920;12.238;2023-07-28T04:50:00;3.53;;;0.80;;
21000;SDS011;10658;50.920;12.238;2023-07-28T04:54:28;2.95;;;1.40;;
21000;SDS011;10658;50.920;12.238;2023-07-28T04:58:42;1.05;;;0.90;;
21000;SDS011;10658;50.920;12.238;2023-07-28T05:02:48;2.63;;;1.30;;
21000;SDS011;10658;50.920;12.238;2023-07-28T05:06:59;5.07;;;1.27;;
21000;SDS011;10658;50.920;12.238;2023-07-28T05:11:08;2.67;;;1.00;;
21000;SDS011;10658;50.920;12.238;2023-07-28T05:15:29;3.00;;;1.13;;
21000;SDS011;10658;50.920;12.238;2023-07-28T05:19:38;1.63;;;1.00;;
21000;SDS011;10658;50.920;12.238;2023-07-28T05:24:01;4.30;;;1.23;;
21000;SDS011;10658;50.920;12.238;2023-07-28T05:28:09;0.77;;;0.75;;
21000;SDS011;10658;50.920;12.238;2023-07-28T05:32:15;2.40;;;1.15;;
21000;SDS011;10658;50.920;12.238;2023-07-28T05:36:49;3.13;;;0.88;;
21000;SDS011;10658;50.920;12.238;2023-07-28T05:41:14;1.52;;;1.33;;
21000;SDS011;10658;50.920;12.238;2023-07-28T05:45:21;3.40;;;1.20;;
21000;SDS011;10658;50.920;12.238;2023-07-28T05:49:28;2.42;;;1.10;;
21000;SDS011;10658;50.920;12.238;2023-07-28T05:53:37;1.13;;;1.00;;
21000;SDS011;10658;50.920;12.238;2023-07-28T05:57:43;1.05;;;0.98;;
21000;SDS011;10658;50.920;12.238;2023-07-28T06:01:46;2.13;;;1.27;;
21000;SDS011;10658;50.920;12.238;2023-07-28T06:06:12;1.40;;;0.95;;
21000;SDS011;10658;50.920;12.238;2023-07-28T06:10:15;1.45;;;0.90;;
21000;SDS011;10658;50.920;12.238;2023-07-28T06:14:32;2.28;;;0.90;;
21000;SDS011;10658;50.920;12.238;2023-07-28T06:18:45;0.95;;;0.80;;
21000;SDS011;10658;50.920;12.238;2023-07-28T06:23:02;1.55;;;1.15;;
21000;SDS011;10658;50.920;12.238;2023-07-28T06:27:15;1.35;;;0.85;;
21000;SDS011;10658;50.920;12.238;2023-07-28T06:31:34;1.08;;;0.98;;
21000;SDS011;10658;50.920;12.238;2023-07-28T06:35:38;0.82;;;0.82;;
21000;SDS011;10658;50.920;12.238;2023-07-28T06:39:50;2.47;;;1.17;;
21000;SDS011;10658;50.920;12.238;2023-07-28T06:44:05;1.30;;;1.05;;
21000;SDS011;10658;50.920;12.238;2023-07-28T06:48:12;1.10;;;0.93;;
21000;SDS011;10658;50.920;12.238;2023-07-28T06:52:24;2.83;;;0.95;;
21000;SDS011;10658;50.920;12.238;2023-07-28T06:56:36;0.82;;;0.65;;
21000;SDS011;10658;50.920;12.238;2023-07-28T07:01:02;2.22;;;0.60;;
21000;SDS011;10658;50.920;12.238;2023-07-28T07:05:13;0.55;;;0.47;;
21000;SDS011;10658;50.920;12.238;2023-07-28T07:09:49;0.50;;;0.40;;
21000;SDS011;10658;50.920;12.238;2023-07-28T07:14:03;0.70;;;0.60;;
21000;SDS011;10658;50.920;12.238;2023-07-28T07:18:13;1.48;;;0.57;;
21000;SDS011;10658;50.920;12.238;2023-07-28T07:22:28;0.63;;;0.40;;
21000;SDS011;10658;50.920;12.238;2023-07-28T07:26:42;0.68;;;0.50;;
21000;SDS011;10658;50.920;12.238;2023-07-28T07:30:49;2.00;;;0.40;;
21000;SDS011;10658;50.920;12.238;2023-07-28T07:35:09;0.43;;;0.40;;
21000;SDS011;10658;50.920;12.238;2023-07-28T07:39:36;1.98;;;0.70;;
21000;SDS011;10658;50.920;12.238;2023-07-28T07:48:31;0.40;;;0.40;;
21000;SDS011;10658;50.920;12.238;2023-07-28T07:52:58;0.60;;;0.43;;
21000;SDS011;10658;50.920;12.238;2023-07-28T07:57:27;1.42;;;0.20;;
21000;SDS011;10658;50.920;12.238;2023-07-28T08:01:41;0.30;;;0.30;;
21000;SDS011;10658;50.920;12.238;2023-07-28T08:05:51;0.30;;;0.30;;
21000;SDS011;10658;50.920;12.238;2023-07-28T08:09:54;2.03;;;0.35;;
21000;SDS011;10658;50.920;12.238;2023-07-28T08:14:01;2.25;;;0.40;;
21000;SDS011;10658;50.920;12.238;2023-07-28T08:18:11;2.08;;;0.40;;
21000;SDS011;10658;50.920;12.238;2023-07-28T08:22:18;0.40;;;0.38;;
21000;SDS011;10658;50.920;12.238;2023-07-28T08:26:27;0.60;;;0.32;;
21000;SDS011;10658;50.920;12.238;2023-07-28T08:30:32;0.55;;;0.30;;
21000;SDS011;10658;50.920;12.238;2023-07-28T08:34:35;0.32;;;0.30;;
21000;SDS011;10658;50.920;12.238;2023-07-28T08:38:38;0.88;;;0.40;;
21000;SDS011;10658;50.920;12.238;2023-07-28T08:42:41;0.47;;;0.43;;
21000;SDS011;10658;50.920;12.238;2023-07-28T08:46:43;0.32;;;0.28;;
21000;SDS011;10658;50.920;12.238;2023-07-28T08:50:44;0.47;;;0.32;;
21000;SDS011;10658;50.920;12.238;2023-07-28T08:54:45;0.35;;;0.35;;
21000;SDS011;10658;50.920;12.238;2023-07-28T08:58:46;1.38;;;0.60;;
21000;SDS011;10658;50.920;12.238;2023-07-28T09:02:48;0.40;;;0.40;;
21000;SDS011;10658;50.920;12.238;2023-07-28T09:06:50;1.55;;;0.38;;
21000;SDS011;10658;50.920;12.238;2023-07-28T09:10:51;0.40;;;0.40;;
21000;SDS011;10658;50.920;12.238;2023-07-28T09:14:58;0.40;;;0.40;;
21000;SDS011;10658;50.920;12.238;2023-07-28T09:19:05;0.80;;;0.40;;
21000;SDS011;10658;50.920;12.238;2023-07-28T09:23:07;0.43;;;0.40;;
21000;SDS011;10658;50.920;12.238;2023-07-28T09:27:12;0.20;;;0.20;;
21000;SDS011;10658;50.920;12.238;2023-07-28T09:31:28;3.30;;;0.47;;
21000;SDS011;10658;50.920;12.238;2023-07-28T09:35:30;2.47;;;0.88;;
21000;SDS011;10658;50.920;12.238;2023-07-28T09:39:31;0.30;;;0.30;;
21000;SDS011;10658;50.920;12.238;2023-07-28T09:43:34;0.65;;;0.50;;
21000;SDS011;10658;50.920;12.238;2023-07-28T09:47:38;0.45;;;0.35;;
21000;SDS011;10658;50.920;12.238;2023-07-28T09:51:39;0.68;;;0.50;;
21000;SDS011;10658;50.920;12.238;2023-07-28T09:55:45;1.08;;;0.77;;
21000;SDS011;10658;50.920;12.238;2023-07-28T09:59:51;1.77;;;0.50;;
21000;SDS011;10658;50.920;12.238;2023-07-28T10:03:54;0.65;;;0.45;;
21000;SDS011;10658;50.920;12.238;2023-07-28T10:07:55;0.57;;;0.50;;
21000;SDS011;10658;50.920;12.238;2023-07-28T10:11:57;0.63;;;0.57;;
21000;SDS011;10658;50.920;12.238;2023-07-28T10:15:57;1.75;;;0.52;;
21000;SDS011;10658;50.920;12.238;2023-07-28T10:20:02;0.50;;;0.50;;
21000;SDS011;10658;50.920;12.238;2023-07-28T10:24:09;0.60;;;0.60;;
21000;SDS011;10658;50.920;12.238;2023-07-28T10:28:26;0.70;;;0.60;;
21000;SDS011;10658;50.920;12.238;2023-07-28T10:32:28;0.63;;;0.60;;
21000;SDS011;10658;50.920;12.238;2023-07-28T10:40:33;2.08;;;0.57;;
21000;SDS011;10658;50.920;12.238;2023-07-28T10:44:36;0.85;;;0.60;;
21000;SDS011;10658;50.920;12.238;2023-07-28T10:48:41;0.60;;;0.60;;
21000;SDS011;10658;50.920;12.238;2023-07-28T10:52:44;1.33;;;0.70;;
21000;SDS011;10658;50.920;12.238;2023-07-28T10:56:46;0.90;;;0.40;;
21000;SDS011;10658;50.920;12.238;2023-07-28T11:00:49;0.40;;;0.40;;
21000;SDS011;10658;50.920;12.238;2023-07-28T11:04:51;0.60;;;0.60;;
21000;SDS011;10658;50.920;12.238;2023-07-28T11:08:51;0.55;;;0.50;;
21000;SDS011;10658;50.920;12.238;2023-07-28T11:12:52;0.50;;;0.50;;
21000;SDS011;10658;50.920;12.238;2023-07-28T11:16:53;0.60;;;0.50;;
21000;SDS011;10658;50.920;12.238;2023-07-28T11:20:55;0.95;;;0.85;;
21000;SDS011;10658;50.920;12.238;2023-07-28T11:24:56;0.80;;;0.45;;
21000;SDS011;10658;50.920;12.238;2023-07-28T11:28:57;5.15;;;1.70;;
21000;SDS011;10658;50.920;12.238;2023-07-28T11:32:59;1.70;;;0.80;;
21000;SDS011;10658;50.920;12.238;2023-07-28T11:37:03;0.45;;;0.40;;
21000;SDS011;10658;50.920;12.238;2023-07-28T11:41:05;0.63;;;0.60;;
21000;SDS011;10658;50.920;12.238;2023-07-28T11:45:07;0.50;;;0.50;;
21000;SDS011;10658;50.920;12.238;2023-07-28T11:49:10;0.63;;;0.63;;
21000;SDS011;10658;50.920;12.238;2023-07-28T11:53:13;0.60;;;0.60;;
21000;SDS011;10658;50.920;12.238;2023-07-28T11:57:15;1.15;;;0.57;;
21000;SDS011;10658;50.920;12.238;2023-07-28T12:01:16;0.60;;;0.47;;
21000;SDS011;10658;50.920;12.238;2023-07-28T12:05:18;0.60;;;0.60;;
21000;SDS011;10658;50.920;12.238;2023-07-28T12:09:18;0.38;;;0.38;;
21000;SDS011;10658;50.920;12.238;2023-07-28T12:13:22;0.43;;;0.40;;
21000;SDS011;10658;50.920;12.238;2023-07-28T12:17:29;0.85;;;0.65;;
21000;SDS011;10658;50.920;12.238;2023-07-28T12:21:33;0.30;;;0.30;;
21000;SDS011;10658;50.920;12.238;2023-07-28T12:25:37;0.65;;;0.50;;
21000;SDS011;10658;50.920;12.238;2023-07-28T12:29:41;0.40;;;0.40;;
21000;SDS011;10658;50.920;12.238;2023-07-28T12:33:44;0.60;;;0.60;;
21000;SDS011;10658;50.920;12.238;2023-07-28T12:37:52;0.55;;;0.55;;
21000;SDS011;10658;50.920;12.238;2023-07-28T12:41:54;0.82;;;0.50;;
21000;SDS011;10658;50.920;12.238;2023-07-28T12:45:58;0.70;;;0.60;;
21000;SDS011;10658;50.920;12.238;2023-07-28T12:50:01;0.30;;;0.30;;
21000;SDS011;10658;50.920;12.238;2023-07-28T12:54:04;63.38;;;58.00;;
21000;SDS011;10658;50.920;12.238;2023-07-28T12:58:06;150.38;;;135.15;;
21000;SDS011;10658;50.920;12.238;2023-07-28T13:02:10;128.90;;;101.65;;
21000;SDS011;10658;50.920;12.238;2023-07-28T13:06:14;70.22;;;62.85;;
21000;SDS011;10658;50.920;12.238;2023-07-28T13:10:18;9.95;;;8.95;;
21000;SDS011;10658;50.920;12.238;2023-07-28T13:14:24;1.70;;;1.55;;
21000;SDS011;10658;50.920;12.238;2023-07-28T13:18:28;1.73;;;1.58;;
21000;SDS011;10658;50.920;12.238;2023-07-28T13:22:33;1.60;;;1.50;;
21000;SDS011;10658;50.920;12.238;2023-07-28T13:26:38;6.22;;;3.30;;
21000;SDS011;10658;50.920;12.238;2023-07-28T13:30:44;3.15;;;2.58;;
21000;SDS011;10658;50.920;12.238;2023-07-28T13:34:54;0.75;;;0.75;;
21000;SDS011;10658;50.920;12.238;2023-07-28T13:38:58;1.73;;;1.63;;
21000;SDS011;10658;50.920;12.238;2023-07-28T13:43:01;2.00;;;1.08;;
21000;SDS011;10658;50.920;12.238;2023-07-28T13:47:04;0.77;;;0.65;;
21000;SDS011;10658;50.920;12.238;2023-07-28T13:51:07;2.72;;;2.35;;
21000;SDS011;10658;50.920;12.238;2023-07-28T13:55:10;0.80;;;0.80;;
21000;SDS011;10658;50.920;12.238;2023-07-28T13:59:13;0.88;;;0.88;;
21000;SDS011;10658;50.920;12.238;2023-07-28T14:03:16;0.40;;;0.40;;
21000;SDS011;10658;50.920;12.238;2023-07-28T14:07:20;1.45;;;1.35;;
21000;SDS011;10658;50.920;12.238;2023-07-28T14:11:24;0.82;;;0.82;;
21000;SDS011;10658;50.920;12.238;2023-07-28T14:15:37;1.52;;;1.00;;
21000;SDS011;10658;50.920;12.238;2023-07-28T14:19:49;2.00;;;0.93;;
21000;SDS011;10658;50.920;12.238;2023-07-28T14:23:57;1.55;;;1.00;;
21000;SDS011;10658;50.920;12.238;2023-07-28T14:28:24;4.18;;;2.85;;
21000;SDS011;10658;50.920;12.238;2023-07-28T14:32:28;1.40;;;1.30;;
21000;SDS011;10658;50.920;12.238;2023-07-28T14:36:41;0.98;;;0.80;;
21000;SDS011;10658;50.920;12.238;2023-07-28T14:40:44;1.15;;;0.95;;
21000;SDS011;10658;50.920;12.238;2023-07-28T14:44:53;1.58;;;1.27;;
21000;SDS011;10658;50.920;12.238;2023-07-28T14:48:57;2.10;;;0.80;;
21000;SDS011;10658;50.920;12.238;2023-07-28T14:53:26;2.60;;;2.20;;
21000;SDS011;10658;50.920;12.238;2023-07-28T14:57:50;1.30;;;0.93;;
21000;SDS011;10658;50.920;12.238;2023-07-28T15:01:54;2.10;;;1.30;;
21000;SDS011;10658;50.920;12.238;2023-07-28T15:05:58;0.93;;;0.63;;
21000;SDS011;10658;50.920;12.238;2023-07-28T15:10:03;2.00;;;1.20;;
21000;SDS011;10658;50.920;12.238;2023-07-28T15:14:07;1.00;;;0.98;;
21000;SDS011;10658;50.920;12.238;2023-07-28T15:18:11;1.85;;;0.82;;
21000;SDS011;10658;50.920;12.238;2023-07-28T15:22:14;1.20;;;1.00;;
21000;SDS011;10658;50.920;12.238;2023-07-28T15:26:17;1.55;;;0.93;;
21000;SDS011;10658;50.920;12.238;2023-07-28T15:30:21;3.50;;;1.48;;
21000;SDS011;10658;50.920;12.238;2023-07-28T15:34:25;1.10;;;1.00;;
21000;SDS011;10658;50.920;12.238;2023-07-28T15:38:31;2.47;;;0.63;;
21000;SDS011;10658;50.920;12.238;2023-07-28T15:42:35;0.63;;;0.60;;
21000;SDS011;10658;50.920;12.238;2023-07-28T15:46:42;0.52;;;0.43;;
21000;SDS011;10658;50.920;12.238;2023-07-28T15:50:46;0.65;;;0.65;;
21000;SDS011;10658;50.920;12.238;2023-07-28T15:54:50;1.27;;;1.17;;
21000;SDS011;10658;50.920;12.238;2023-07-28T15:58:53;3.63;;;2.58;;
21000;SDS011;10658;50.920;12.238;2023-07-28T16:03:09;3.80;;;3.45;;
21000;SDS011;10658;50.920;12.238;2023-07-28T16:07:13;3.05;;;2.85;;
21000;SDS011;10658;50.920;12.238;2023-07-28T16:11:20;4.13;;;3.75;;
21000;SDS011;10658;50.920;12.238;2023-07-28T16:15:25;1.63;;;1.10;;
21000;SDS011;10658;50.920;12.238;2023-07-28T16:19:28;0.80;;;0.80;;
21000;SDS011;10658;50.920;12.238;2023-07-28T16:23:38;6.47;;;4.97;;
21000;SDS011;10658;50.920;12.238;2023-07-28T16:27:44;1.00;;;0.90;;
21000;SDS011;10658;50.920;12.238;2023-07-28T16:31:51;1.30;;;1.20;;
21000;SDS011;10658;50.920;12.238;2023-07-28T16:36:07;1.85;;;0.90;;
21000;SDS011;10658;50.920;12.238;2023-07-28T16:40:44;1.80;;;1.65;;
21000;SDS011;10658;50.920;12.238;2023-07-28T16:45:42;1.05;;;0.90;;
21000;SDS011;10658;50.920;12.238;2023-07-28T16:49:49;1.85;;;0.88;;
21000;SDS011;10658;50.920;12.238;2023-07-28T16:53:59;0.43;;;0.43;;
21000;SDS011;10658;50.920;12.238;2023-07-28T16:58:03;57.17;;;33.97;;
21000;SDS011;10658;50.920;12.238;2023-07-28T17:02:10;3.72;;;2.80;;
21000;SDS011;10658;50.920;12.238;2023-07-28T17:06:18;0.70;;;0.70;;
21000;SDS011;10658;50.920;12.238;2023-07-28T17:10:21;7.47;;;6.68;;
21000;SDS011;10658;50.920;12.238;2023-07-28T17:14:25;3.25;;;1.55;;
21000;SDS011;10658;50.920;12.238;2023-07-28T17:18:28;1.50;;;1.08;;
21000;SDS011;10658;50.920;12.238;2023-07-28T17:22:32;0.93;;;0.85;;
21000;SDS011;10658;50.920;12.238;2023-07-28T17:26:39;27.67;;;16.42;;
21000;SDS011;10658;50.920;12.238;2023-07-28T17:30:43;2.25;;;1.23;;
21000;SDS011;10658;50.920;12.238;2023-07-28T17:34:47;1.95;;;1.80;;
21000;SDS011;10658;50.920;12.238;2023-07-28T17:38:50;6.90;;;4.50;;
21000;SDS011;10658;50.920;12.238;2023-07-28T17:42:53;1.00;;;0.93;;
21000;SDS011;10658;50.920;12.238;2023-07-28T17:46:57;3.00;;;1.05;;
21000;SDS011;10658;50.920;12.238;2023-07-28T17:51:13;1.00;;;1.00;;
21000;SDS011;10658;50.920;12.238;2023-07-28T17:55:19;1.50;;;1.40;;
21000;SDS011;10658;50.920;12.238;2023-07-28T17:59:28;2.47;;;0.75;;
21000;SDS011;10658;50.920;12.238;2023-07-28T18:03:31;1.33;;;1.02;;
21000;SDS011;10658;50.920;12.238;2023-07-28T18:07:38;1.00;;;0.90;;
21000;SDS011;10658;50.920;12.238;2023-07-28T18:11:49;0.40;;;0.40;;
21000;SDS011;10658;50.920;12.238;2023-07-28T18:15:56;0.60;;;0.60;;
21000;SDS011;10658;50.920;12.238;2023-07-28T18:19:59;0.60;;;0.60;;
21000;SDS011;10658;50.920;12.238;2023-07-28T18:24:05;0.52;;;0.52;;
21000;SDS011;10658;50.920;12.238;2023-07-28T18:28:09;5.00;;;2.80;;
21000;SDS011;10658;50.920;12.238;2023-07-28T18:32:12;4.38;;;2.90;;
21000;SDS011;10658;50.920;12.238;2023-07-28T18:36:17;3.08;;;2.65;;
21000;SDS011;10658;50.920;12.238;2023-07-28T18:40:23;5.15;;;4.05;;
21000;SDS011;10658;50.920;12.238;2023-07-28T18:44:27;2.75;;;2.38;;
21000;SDS011;10658;50.920;12.238;2023-07-28T18:48:32;2.05;;;1.10;;
21000;SDS011;10658;50.920;12.238;2023-07-28T18:52:33;0.70;;;0.70;;
21000;SDS011;10658;50.920;12.238;2023-07-28T18:56:36;1.20;;;0.65;;
21000;SDS011;10658;50.920;12.238;2023-07-28T19:00:37;1.02;;;0.93;;
21000;SDS011;10658;50.920;12.238;2023-07-28T19:04:39;2.63;;;2.08;;
21000;SDS011;10658;50.920;12.238;2023-07-28T19:08:43;6.25;;;4.60;;
21000;SDS011;10658;50.920;12.238;2023-07-28T19:12:53;3.97;;;2.22;;
21000;SDS011;10658;50.920;12.238;2023-07-28T19:16:55;7.65;;;3.72;;
21000;SDS011;10658;50.920;12.238;2023-07-28T19:20:56;23.65;;;12.23;;
21000;SDS011;10658;50.920;12.238;2023-07-28T19:25:04;18.17;;;13.00;;
21000;SDS011;10658;50.920;12.238;2023-07-28T19:29:09;1.67;;;1.35;;
21000;SDS011;10658;50.920;12.238;2023-07-28T19:33:21;1.27;;;0.90;;
21000;SDS011;10658;50.920;12.238;2023-07-28T19:37:22;0.57;;;0.55;;
21000;SDS011;10658;50.920;12.238;2023-07-28T19:41:23;0.73;;;0.70;;
21000;SDS011;10658;50.920;12.238;2023-07-28T19:45:25;0.95;;;0.90;;
21000;SDS011;10658;50.920;12.238;2023-07-28T19:49:26;2.50;;;0.95;;
21000;SDS011;10658;50.920;12.238;2023-07-28T19:53:26;1.00;;;1.00;;
21000;SDS011;10658;50.920;12.238;2023-07-28T19:57:27;2.25;;;0.80;;
21000;SDS011;10658;50.920;12.238;2023-07-28T20:01:28;0.85;;;0.63;;
21000;SDS011;10658;50.920;12.238;2023-07-28T20:05:30;2.05;;;0.85;;
21000;SDS011;10658;50.920;12.238;2023-07-28T20:09:36;1.05;;;0.80;;
21000;SDS011;10658;50.920;12.238;2023-07-28T20:13:37;1.15;;;1.00;;
21000;SDS011;10658;50.920;12.238;2023-07-28T20:17:38;4.20;;;0.98;;
21000;SDS011;10658;50.920;12.238;2023-07-28T20:21:39;1.02;;;0.93;;
21000;SDS011;10658;50.920;12.238;2023-07-28T20:25:42;0.98;;;0.93;;
21000;SDS011;10658;50.920;12.238;2023-07-28T20:29:44;1.73;;;1.08;;
21000;SDS011;10658;50.920;12.238;2023-07-28T20:33:44;1.25;;;0.90;;
21000;SDS011;10658;50.920;12.238;2023-07-28T20:37:46;2.22;;;1.25;;
21000;SDS011;10658;50.920;12.238;2023-07-28T20:41:47;1.20;;;1.10;;
21000;SDS011;10658;50.920;12.238;2023-07-28T20:45:48;1.52;;;1.05;;
21000;SDS011;10658;50.920;12.238;2023-07-28T20:49:49;1.50;;;0.98;;
21000;SDS011;10658;50.920;12.238;2023-07-28T20:53:50;1.70;;;1.20;;
21000;SDS011;10658;50.920;12.238;2023-07-28T20:57:51;1.05;;;0.98;;
21000;SDS011;10658;50.920;12.238;2023-07-28T21:01:52;0.98;;;0.93;;
21000;SDS011;10658;50.920;12.238;2023-07-28T21:05:53;1.95;;;1.15;;
21000;SDS011;10658;50.920;12.238;2023-07-28T21:09:54;2.03;;;1.00;;
21000;SDS011;10658;50.920;12.238;2023-07-28T21:13:58;1.67;;;1.10;;
21000;SDS011;10658;50.920;12.238;2023-07-28T21:17:58;1.33;;;1.13;;
21000;SDS011;10658;50.920;12.238;2023-07-28T21:21:59;1.70;;;1.00;;
21000;SDS011;10658;50.920;12.238;2023-07-28T21:26:01;2.42;;;0.95;;
21000;SDS011;10658;50.920;12.238;2023-07-28T21:30:08;1.27;;;1.17;;
21000;SDS011;10658;50.920;12.238;2023-07-28T21:34:09;1.77;;;1.20;;
21000;SDS011;10658;50.920;12.238;2023-07-28T21:38:12;2.58;;;1.70;;
21000;SDS011;10658;50.920;12.238;2023-07-28T21:42:13;1.30;;;1.20;;
21000;SDS011;10658;50.920;12.238;2023-07-28T21:46:14;5.10;;;1.92;;
21000;SDS011;10658;50.920;12.238;2023-07-28T21:50:15;1.30;;;1.20;;
21000;SDS011;10658;50.920;12.238;2023-07-28T21:54:15;1.38;;;1.20;;
21000;SDS011;10658;50.920;12.238;2023-07-28T21:58:16;2.42;;;1.40;;
21000;SDS011;10658;50.920;12.238;2023-07-28T22:02:17;1.63;;;1.20;;
21000;SDS011;10658;50.920;12.238;2023-07-28T22:06:19;1.70;;;1.60;;
21000;SDS011;10658;50.920;12.238;2023-07-28T22:10:20;1.73;;;1.27;;
21000;SDS011;10658;50.920;12.238;2023-07-28T22:14:21;1.80;;;1.33;;
21000;SDS011;10658;50.920;12.238;2023-07-28T22:18:21;1.10;;;1.00;;
21000;SDS011;10658;50.920;12.238;2023-07-28T22:22:22;1.65;;;1.10;;
21000;SDS011;10658;50.920;12.238;2023-07-28T22:26:23;1.92;;;1.48;;
21000;SDS011;10658;50.920;12.238;2023-07-28T22:30:24;2.25;;;0.90;;
21000;SDS011;10658;50.920;12.238;2023-07-28T22:34:24;0.93;;;0.90;;
21000;SDS011;10658;50.920;12.238;2023-07-28T22:38:25;1.10;;;0.95;;
21000;SDS011;10658;50.920;12.238;2023-07-28T22:42:27;1.45;;;1.35;;
21000;SDS011;10658;50.920;12.238;2023-07-28T22:46:28;2.00;;;1.40;;
21000;SDS011;10658;50.920;12.238;2023-07-28T22:50:29;1.10;;;1.00;;
21000;SDS011;10658;50.920;12.238;2023-07-28T22:54:30;0.90;;;0.90;;
21000;SDS011;10658;50.920;12.238;2023-07-28T22:58:32;1.08;;;0.90;;
21000;SDS011;10658;50.920;12.238;2023-07-28T23:02:33;1.20;;;1.10;;
21000;SDS011;10658;50.920;12.238;2023-07-28T23:06:33;0.73;;;0.73;;
21000;SDS011;10658;50.920;12.238;2023-07-28T23:10:34;1.08;;;0.70;;
21000;SDS011;10658;50.920;12.238;2023-07-28T23:14:35;1.52;;;1.05;;
21000;SDS011;10658;50.920;12.238;2023-07-28T23:18:36;2.28;;;1.10;;
21000;SDS011;10658;50.920;12.238;2023-07-28T23:22:36;1.23;;;1.05;;
21000;SDS011;10658;50.920;12.238;2023-07-28T23:26:40;1.30;;;1.20;;
21000;SDS011;10658;50.920;12.238;2023-07-28T23:30:40;1.92;;;1.30;;
21000;SDS011;10658;50.920;12.238;2023-07-28T23:34:42;1.02;;;0.98;;
21000;SDS011;10658;50.920;12.238;2023-07-28T23:38:43;3.05;;;1.27;;
21000;SDS011;10658;50.920;12.238;2023-07-28T23:42:44;1.75;;;1.20;;
21000;SDS011;10658;50.920;12.238;2023-07-28T23:46:44;3.13;;;2.03;;
21000;SDS011;10658;50.920;12.238;2023-07-28T23:50:45;1.17;;;0.95;;
21000;SDS011;10658;50.920;12.238;2023-07-28T23:54:46;1.95;;;1.50;;
21000;SDS011;10658;50.920;12.238;2023-07-28T23:58:46;1.42;;;1.33;;
